»·PEaware :: N102MR KAVX-KSAN

N102MR :: KAVX-KSAN

FLIGHT INFORMATION

Flight Status: Arrived
Operator: Privately registered:
United States
More flights under this callsign
Pilot: Michael R. (16974)
Aircraft: CESSNA 172 SKYHAWK
(C172)
More flights by this aircraft type
Origin: KAVX Catalina
United States
Destination: KSAN San Diego Intl-Lindbergh
United States
More flights between these airports :: More routes between these airports
Route: SXC V208 OCN V23 MZB
File this flight plan on PilotEdge
Remarks: I-8
Altitude:
(Current/Filed)
7,000ft
Speed:
(Current/Filed)
115kts
Departed: 16-Nov-17 08:51 PM
Arrived: 16-Nov-17 09:58 PM
Distance/Time
Traveled:
56nm/1:07
Distance/Time
To Go:
Arrived

Flight Plot

Page will automatically refresh every two minutes.


Map Options




Map Legend


Flown Route
Filed Route
Departure Airport
Arrival Airport
Navaid (VOR, NDB)
Fix

Horizontal Profiles

Position Reports

Time Latitude Longitude Heading Altitude Ground
Speed
16-Nov-17 20:48 33.403292 -118.415954 44 1545ft 0kts
16-Nov-17 20:49 33.403292 -118.415954 44 1545ft 0kts
16-Nov-17 20:50 33.403292 -118.415954 44 1545ft 0kts
16-Nov-17 20:51 33.403292 -118.415954 44 1545ft 0kts
16-Nov-17 20:52 33.403292 -118.415954 44 1545ft 0kts
16-Nov-17 20:53 33.404508 -118.415021 349 1539ft 14kts
16-Nov-17 20:54 33.407198 -118.411387 27 1507ft 0kts
16-Nov-17 20:55 33.407417 -118.411632 258 1508ft 4kts
16-Nov-17 20:56 33.405803 -118.414316 238 1533ft 61kts
16-Nov-17 20:57 33.395172 -118.434720 246 2321ft 85kts
16-Nov-17 20:58 33.371959 -118.448315 197 2981ft 109kts
16-Nov-17 20:59 33.339110 -118.453367 192 3104ft 115kts
16-Nov-17 21:00 33.309305 -118.453781 184 3108ft 104kts
16-Nov-17 21:01 33.295881 -118.424068 98 3109ft 110kts
16-Nov-17 21:02 33.291283 -118.387963 68 3108ft 106kts
16-Nov-17 21:03 33.298193 -118.353455 70 3109ft 106kts
16-Nov-17 21:04 33.304009 -118.321975 70 3937ft 92kts
16-Nov-17 21:05 33.308968 -118.292982 70 4907ft 84kts
16-Nov-17 21:06 33.314252 -118.264287 69 5728ft 95kts
16-Nov-17 21:07 33.320789 -118.232944 69 6599ft 93kts
16-Nov-17 21:08 33.327761 -118.202584 69 7084ft 117kts
16-Nov-17 21:09 33.337978 -118.161783 78 7064ft 134kts
16-Nov-17 21:10 33.336235 -118.116957 98 7069ft 135kts
16-Nov-17 21:11 33.331053 -118.072265 102 7069ft 135kts
16-Nov-17 21:12 33.325211 -118.029181 102 7068ft 131kts
16-Nov-17 21:13 33.319529 -117.986297 102 7069ft 130kts
16-Nov-17 21:14 33.313971 -117.943695 102 7049ft 131kts
16-Nov-17 21:15 33.308467 -117.899514 101 7014ft 131kts
16-Nov-17 21:16 33.303194 -117.857061 101 7015ft 128kts
16-Nov-17 21:17 33.297567 -117.815075 101 7016ft 127kts
16-Nov-17 21:18 33.291382 -117.773347 101 7016ft 128kts
16-Nov-17 21:19 33.286306 -117.731406 100 7016ft 127kts
16-Nov-17 21:20 33.280672 -117.691938 112 7014ft 118kts
16-Nov-17 21:21 33.274304 -117.652174 110 7017ft 125kts
16-Nov-17 21:22 33.268027 -117.610888 110 7016ft 127kts
16-Nov-17 21:23 33.261922 -117.568589 107 6979ft 129kts
16-Nov-17 21:24 33.256828 -117.526328 107 6980ft 128kts
16-Nov-17 21:25 33.251738 -117.484092 107 6980ft 128kts
16-Nov-17 21:26 33.246643 -117.442037 106 6973ft 127kts
16-Nov-17 21:27 33.230769 -117.412891 167 6971ft 101kts
16-Nov-17 21:28 33.204421 -117.399692 170 6975ft 113kts
16-Nov-17 21:29 33.172683 -117.386532 173 6973ft 123kts
16-Nov-17 21:30 33.140562 -117.373498 172 6972ft 120kts
16-Nov-17 21:31 33.109015 -117.360256 171 6973ft 121kts
16-Nov-17 21:32 33.078303 -117.347330 171 6594ft 110kts
16-Nov-17 21:33 33.049678 -117.335376 171 5876ft 112kts
16-Nov-17 21:34 33.019404 -117.323677 171 5162ft 116kts
16-Nov-17 21:35 32.990125 -117.312462 170 4976ft 102kts
16-Nov-17 21:36 32.962122 -117.301344 170 4978ft 108kts
16-Nov-17 21:37 32.938316 -117.291895 170 4987ft 108kts
16-Nov-17 21:38 32.905225 -117.278712 168 4987ft 107kts
16-Nov-17 21:39 32.877383 -117.266785 167 4992ft 106kts
16-Nov-17 21:40 32.865568 -117.230480 96 4990ft 136kts
16-Nov-17 21:41 32.859586 -117.193025 98 4989ft 139kts
16-Nov-17 21:42 32.851165 -117.140762 107 4989ft 137kts
16-Nov-17 21:43 32.837830 -117.099169 112 4997ft 130kts
16-Nov-17 21:44 32.825117 -117.059717 113 4997ft 123kts
16-Nov-17 21:45 32.815136 -117.028539 113 4989ft 119kts
16-Nov-17 21:46 32.802967 -116.991042 112 4990ft 123kts
16-Nov-17 21:47 32.788467 -116.946170 112 4990ft 125kts
16-Nov-17 21:48 32.778140 -116.914031 112 4990ft 125kts
16-Nov-17 21:49 32.765891 -116.875479 112 5000ft 124kts
16-Nov-17 21:50 32.739789 -116.858961 196 4549ft 120kts
16-Nov-17 21:51 32.708759 -116.866255 196 3842ft 110kts
16-Nov-17 21:52 32.679368 -116.874049 222 3946ft 110kts
16-Nov-17 21:53 32.675889 -116.906925 273 3929ft 105kts
16-Nov-17 21:54 32.675965 -116.939145 277 3826ft 98kts
16-Nov-17 21:55 32.681673 -116.972535 285 3388ft 109kts
16-Nov-17 21:56 32.689062 -117.007242 286 2929ft 107kts
16-Nov-17 21:57 32.696897 -117.042003 289 2614ft 111kts
16-Nov-17 21:58 32.706147 -117.077062 290 2071ft 112kts
16-Nov-17 21:59 32.714831 -117.113052 289 1395ft 112kts
16-Nov-17 22:00 32.723306 -117.147258 286 772ft 87kts
16-Nov-17 22:01 32.728634 -117.169422 289 300ft 68kts
16-Nov-17 22:02 32.733596 -117.189801 292 17ft 41kts
16-Nov-17 22:03 32.734546 -117.190832 29 17ft 0kts
16-Nov-17 22:04 32.735236 -117.189370 196 17ft 0kts
16-Nov-17 22:05 32.735237 -117.189370 196 17ft 0kts
16-Nov-17 22:06 32.735237 -117.189370 196 17ft 0kts
16-Nov-17 22:07 32.735237 -117.189370 196 17ft 0kts
16-Nov-17 22:08 32.735237 -117.189370 196 17ft 0kts
16-Nov-17 22:09 32.735237 -117.189370 196 17ft 0kts
16-Nov-17 22:10 32.735237 -117.189370 196 17ft 0kts
16-Nov-17 22:11 32.735237 -117.189370 196 17ft 0kts
16-Nov-17 22:12 32.735237 -117.189370 196 17ft 0kts
16-Nov-17 22:13 32.735237 -117.189370 196 17ft 0kts
16-Nov-17 22:14 32.735237 -117.189370 196 17ft 0kts
16-Nov-17 22:15 32.735237 -117.189370 196 17ft 0kts
16-Nov-17 22:16 34.051226 -117.602945 269 912ft 0kts
16-Nov-17 22:17 34.051226 -117.602945 269 912ft 0kts

Navigation Log

Ident Type
1. KAVX Airport
2. SXC Navaid
3. AVOLS Fix
4. PACIF Fix
5. HUBRD Fix
6. OCN Navaid
7. HURSI Fix
8. CARIF Fix
9. MZB Navaid
10. KSAN Airport